Time;durP1;ratioP1;P1;durP2;ratioP2;P2;SDS_P1;SDS_P2;PMS_P1;PMS_P2;Temp;Humidity;BMP_temperature;BMP_pressure;BME280_temperature;BME280_humidity;BME280_pressure;Samples;Min_cycle;Max_cycle;Signal;HPM_P1;HPM_P2
2023/07/17 00:05:39;;;;;;;4.90;3.30;;;;;;;19.68;71.66;99498.96;435592;1256;138819;-61
2023/07/17 00:15:44;;;;;;;6.20;5.50;;;;;;;19.51;71.93;99502.63;435665;1254;140453;-64
2023/07/17 00:25:50;;;;;;;4.00;3.30;;;;;;;19.32;72.51;99498.52;435543;1253;139235;-62
2023/07/17 00:35:56;;;;;;;3.70;3.20;;;;;;;19.16;72.89;99497.87;435749;1256;139905;-62
2023/07/17 00:46:03;;;;;;;8.00;3.40;;;;;;;19.05;73.33;99505.31;435643;1255;142673;-62
2023/07/17 00:56:09;;;;;;;3.90;3.40;;;;;;;18.95;74.03;99498.36;435482;1256;139007;-62
2023/07/17 01:06:15;;;;;;;3.60;3.30;;;;;;;18.78;74.35;99486.30;435642;1254;141004;-62
2023/07/17 01:16:20;;;;;;;3.60;2.70;;;;;;;18.70;74.87;99482.52;435364;1254;139590;-62
2023/07/17 01:26:26;;;;;;;3.10;2.90;;;;;;;18.60;75.22;99475.74;435784;1254;140299;-63
2023/07/17 01:36:32;;;;;;;3.40;3.10;;;;;;;18.53;75.79;99486.36;435587;1256;139065;-62
2023/07/17 01:46:38;;;;;;;3.20;2.90;;;;;;;18.39;75.89;99496.55;435285;1256;141083;-61
2023/07/17 01:56:44;;;;;;;3.70;3.20;;;;;;;18.29;76.60;99498.23;435346;1253;140681;-62
2023/07/17 02:06:50;;;;;;;3.20;2.90;;;;;;;18.19;76.89;99524.73;435243;1254;140516;-61
2023/07/17 02:16:55;;;;;;;12.00;3.50;;;;;;;18.21;77.49;99519.19;435235;1253;139088;-62
2023/07/17 02:27:02;;;;;;;4.30;2.90;;;;;;;18.33;77.73;99532.63;435265;1255;139247;-62
2023/07/17 02:37:12;;;;;;;4.00;3.60;;;;;;;18.38;78.33;99530.64;435630;1254;140622;-61
2023/07/17 02:47:18;;;;;;;4.80;3.80;;;;;;;18.54;78.83;99528.17;436116;1256;139236;-61
2023/07/17 02:57:24;;;;;;;4.00;3.70;;;;;;;18.59;79.02;99546.52;435090;1254;139506;-61
2023/07/17 03:07:30;;;;;;;4.30;3.90;;;;;;;18.66;79.38;99541.20;435416;1256;139783;-61
2023/07/17 03:17:35;;;;;;;7.30;3.60;;;;;;;18.98;79.06;99540.40;435227;1254;140456;-61
2023/07/17 03:27:41;;;;;;;4.10;2.80;;;;;;;19.79;78.59;99554.16;435017;1256;139071;-61
2023/07/17 03:37:47;;;;;;;4.10;3.40;;;;;;;20.15;76.70;99568.16;434885;1254;140039;-61
2023/07/17 03:47:53;;;;;;;4.50;3.50;;;;;;;20.48;75.93;99586.11;435146;1256;138890;-64
2023/07/17 03:57:59;;;;;;;3.90;3.60;;;;;;;20.81;75.37;99607.09;434866;1253;140069;-62
2023/07/17 04:08:05;;;;;;;5.20;4.60;;;;;;;21.40;74.29;99596.27;434980;1254;139924;-62
2023/07/17 04:18:11;;;;;;;4.90;4.50;;;;;;;21.63;73.63;99596.88;435453;1254;140087;-62
2023/07/17 04:28:17;;;;;;;4.60;4.00;;;;;;;21.43;73.15;99617.39;435560;1254;138827;-62
2023/07/17 04:38:23;;;;;;;5.00;4.50;;;;;;;21.29;73.77;99622.45;435035;1253;139383;-62
2023/07/17 04:48:28;;;;;;;5.90;4.20;;;;;;;22.04;73.95;99611.30;434677;1253;140051;-62
2023/07/17 04:58:34;;;;;;;7.00;4.20;;;;;;;22.50;72.30;99615.39;434732;1256;138820;-66
2023/07/17 05:08:40;;;;;;;4.20;3.90;;;;;;;22.25;71.84;99613.41;434095;1256;138908;-62
2023/07/17 05:18:46;;;;;;;5.00;4.50;;;;;;;22.00;72.21;99606.17;434631;1254;140229;-61
2023/07/17 05:28:52;;;;;;;6.00;3.70;;;;;;;22.10;72.46;99610.61;435200;1253;139539;-62
2023/07/17 05:38:58;;;;;;;5.60;3.90;;;;;;;22.37;72.25;99600.48;434698;1253;139812;-62
2023/07/17 05:49:04;;;;;;;4.40;3.60;;;;;;;23.05;71.38;99602.33;435194;1256;139627;-62
2023/07/17 05:59:10;;;;;;;6.10;4.80;;;;;;;23.66;69.69;99606.86;434867;1254;139067;-61
2023/07/17 06:09:16;;;;;;;5.90;4.20;;;;;;;23.77;68.02;99612.67;435272;1254;140447;-63
2023/07/17 06:19:22;;;;;;;9.40;4.30;;;;;;;23.53;68.01;99600.70;436203;1253;140422;-62
2023/07/17 06:29:28;;;;;;;4.80;3.60;;;;;;;23.51;68.05;99597.00;434951;1254;138891;-61
2023/07/17 06:39:34;;;;;;;5.40;3.00;;;;;;;23.57;67.81;99594.73;435211;1252;141962;-63
2023/07/17 06:49:41;;;;;;;5.80;3.80;;;;;;;23.92;67.80;99590.46;434642;1256;140743;-64
2023/07/17 06:59:46;;;;;;;6.10;3.40;;;;;;;26.32;65.56;99596.59;436878;1256;140339;-62
2023/07/17 07:09:52;;;;;;;4.70;2.60;;;;;;;28.88;60.09;99601.23;434888;1254;139725;-60
2023/07/17 07:19:58;;;;;;;8.40;2.90;;;;;;;32.47;53.60;99594.17;434996;1254;139516;-65
2023/07/17 07:30:04;;;;;;;4.00;2.20;;;;;;;40.82;44.63;99580.34;439085;1256;138061;-66
2023/07/17 07:40:12;;;;;;;2.60;1.70;;;;;;;49.73;33.12;99567.10;435031;1256;257479;-65
2023/07/17 07:50:19;;;;;;;4.90;2.00;;;;;;;53.64;25.81;99555.50;434948;1256;139194;-66
2023/07/17 08:00:25;;;;;;;3.90;2.30;;;;;;;54.11;22.14;99549.93;434865;1254;138875;-67
2023/07/17 08:10:31;;;;;;;1.90;1.80;;;;;;;50.18;21.62;99558.62;435527;1256;139320;-66
2023/07/17 08:20:37;;;;;;;3.40;1.80;;;;;;;43.79;24.28;99555.30;434851;1256;138488;-65
2023/07/17 08:30:44;;;;;;;1.60;1.50;;;;;;;40.20;26.87;99545.14;435175;1256;140618;-64
2023/07/17 08:40:53;;;;;;;3.60;2.10;;;;;;;38.30;28.90;99537.77;435405;1254;138525;-66
2023/07/17 08:51:01;;;;;;;1.90;1.80;;;;;;;37.48;30.31;99535.20;436229;1256;139260;-67
2023/07/17 09:01:07;;;;;;;1.90;1.80;;;;;;;36.89;31.09;99528.03;435971;1257;139250;-64
2023/07/17 09:11:13;;;;;;;2.90;2.10;;;;;;;36.34;31.42;99515.19;435727;1257;139996;-67
2023/07/17 09:21:20;;;;;;;4.70;2.70;;;;;;;36.21;31.52;99510.36;435425;1257;139369;-65
2023/07/17 09:31:28;;;;;;;2.00;1.80;;;;;;;35.78;31.76;99513.79;435234;1257;140007;-66
2023/07/17 09:41:35;;;;;;;2.20;2.00;;;;;;;35.53;32.13;99516.20;434704;1254;139912;-68
2023/07/17 09:51:41;;;;;;;3.40;2.10;;;;;;;35.41;32.44;99505.34;436489;1257;138534;-69
2023/07/17 10:01:47;;;;;;;;;;;;;;;34.79;32.63;99495.99;437784;1257;138166;-69
2023/07/17 10:11:55;;;;;;;2.10;1.90;;;;;;;35.35;32.80;99480.13;435411;1256;124861;-74
2023/07/17 10:22:00;;;;;;;3.10;2.80;;;;;;;36.08;32.26;99461.52;438935;1254;140832;-75
2023/07/17 10:32:13;;;;;;;2.50;2.20;;;;;;;36.59;31.40;99457.13;438845;1254;139721;-74
2023/07/17 10:42:19;;;;;;;2.70;1.80;;;;;;;36.31;31.20;99466.92;439137;1254;138906;-70
2023/07/17 10:52:25;;;;;;;2.10;1.90;;;;;;;36.02;31.23;99469.92;439125;1254;138820;-71
2023/07/17 11:02:31;;;;;;;4.20;1.90;;;;;;;35.55;31.56;99466.48;438633;1254;138837;-69
2023/07/17 11:12:37;;;;;;;3.40;1.80;;;;;;;35.25;31.96;99451.08;438651;1256;138901;-67
2023/07/17 11:22:43;;;;;;;9.10;2.80;;;;;;;34.88;32.18;99441.02;435268;1254;139160;-65
2023/07/17 11:33:00;;;;;;;3.80;2.30;;;;;;;34.43;32.68;99431.18;435500;1254;139366;-64
2023/07/17 11:43:07;;;;;;;6.90;2.70;;;;;;;33.77;33.57;99440.79;435575;1257;138812;-64
2023/07/17 11:53:16;;;;;;;7.40;2.30;;;;;;;32.71;34.48;99456.51;436958;1254;138265;-64
2023/07/17 12:03:22;;;;;;;4.20;2.40;;;;;;;32.00;35.70;99453.89;435136;1254;139457;-65
2023/07/17 12:13:28;;;;;;;5.20;2.30;;;;;;;31.84;36.32;99443.29;435262;1256;139799;-65
2023/07/17 12:23:34;;;;;;;2.50;2.10;;;;;;;31.54;36.76;99449.91;436614;1255;139023;-64
2023/07/17 12:33:40;;;;;;;3.50;2.20;;;;;;;30.96;37.94;99448.24;434935;1256;139068;-64
2023/07/17 12:43:49;;;;;;;5.20;2.20;;;;;;;30.84;39.73;99441.16;435499;1253;139486;-67
2023/07/17 12:53:55;;;;;;;4.00;2.60;;;;;;;30.99;40.37;99429.02;435085;1254;140635;-62
2023/07/17 13:04:01;;;;;;;2.90;2.70;;;;;;;30.73;41.28;99420.85;436064;1253;140109;-61
2023/07/17 13:14:09;;;;;;;2.30;2.10;;;;;;;30.80;41.86;99413.42;434789;1254;139391;-64
2023/07/17 13:24:16;;;;;;;5.20;1.90;;;;;;;31.17;41.93;99408.48;435374;1254;139461;-62
2023/07/17 13:34:22;;;;;;;5.80;2.60;;;;;;;31.12;41.20;99398.60;434864;1252;139337;-63
2023/07/17 13:44:28;;;;;;;2.30;2.00;;;;;;;30.99;41.12;99405.70;434759;1254;138690;-66
2023/07/17 13:54:34;;;;;;;2.40;2.20;;;;;;;30.83;41.29;99410.78;434936;1256;138384;-67
2023/07/17 14:04:40;;;;;;;2.20;2.10;;;;;;;30.97;41.26;99382.38;434836;1254;141593;-68
2023/07/17 14:14:45;;;;;;;4.40;2.80;;;;;;;31.12;41.37;99361.51;434890;1255;139180;-70
2023/07/17 14:24:52;;;;;;;4.90;3.20;;;;;;;31.19;41.16;99348.91;435196;1256;139401;-72
2023/07/17 14:34:57;;;;;;;2.80;2.50;;;;;;;31.24;40.95;99350.27;437462;1254;138213;-65
2023/07/17 14:45:05;;;;;;;2.80;2.50;;;;;;;31.26;40.69;99365.84;434926;1256;139315;-67
2023/07/17 14:55:11;;;;;;;4.40;2.40;;;;;;;31.01;41.53;99361.45;434933;1254;140979;-66
2023/07/17 15:05:17;;;;;;;2.80;2.00;;;;;;;30.59;41.64;99347.58;434941;1253;139419;-67
2023/07/17 15:15:26;;;;;;;2.50;2.00;;;;;;;30.10;41.91;99341.29;434721;1255;138303;-64
2023/07/17 15:25:32;;;;;;;2.80;2.00;;;;;;;29.61;42.64;99344.88;435474;1255;140472;-66
2023/07/17 15:35:39;;;;;;;2.50;1.90;;;;;;;28.82;44.02;99341.95;434914;1256;138433;-67
2023/07/17 15:45:43;;;;;;;;;;;;;;;28.13;45.52;99357.78;435490;1256;139670;-68
2023/07/17 15:55:49;;;;;;;3.40;2.80;;;;;;;27.33;48.21;99386.21;434851;1256;126846;-66
2023/07/17 16:05:55;;;;;;;3.30;2.70;;;;;;;26.56;52.12;99420.70;435090;1257;139178;-64
2023/07/17 16:16:00;;;;;;;4.30;3.50;;;;;;;25.84;55.18;99424.38;435214;1254;139203;-68
2023/07/17 16:26:07;;;;;;;4.40;4.00;;;;;;;25.42;57.65;99420.16;435180;1253;139828;-69
2023/07/17 16:36:15;;;;;;;8.20;4.10;;;;;;;25.28;58.98;99403.49;435271;1253;139723;-73
2023/07/17 16:46:21;;;;;;;3.80;2.40;;;;;;;25.40;59.25;99387.01;435527;1253;139073;-68
2023/07/17 16:56:30;;;;;;;7.20;3.10;;;;;;;25.61;58.82;99384.66;435505;1256;139376;-67
2023/07/17 17:06:36;;;;;;;5.20;3.70;;;;;;;25.74;58.69;99385.02;437278;1256;140580;-69
2023/07/17 17:16:41;;;;;;;35.90;4.00;;;;;;;25.52;59.06;99385.36;437548;1254;138540;-67
2023/07/17 17:26:47;;;;;;;3.40;3.10;;;;;;;25.44;59.15;99380.66;435522;1253;139604;-63
2023/07/17 17:36:56;;;;;;;8.40;5.20;;;;;;;25.32;58.98;99376.43;435157;1256;139386;-66
2023/07/17 17:47:02;;;;;;;4.00;3.20;;;;;;;25.10;59.33;99383.85;436068;1256;139685;-67
2023/07/17 17:57:08;;;;;;;4.40;3.10;;;;;;;24.82;59.96;99389.05;435216;1253;139882;-65
2023/07/17 18:07:14;;;;;;;3.90;3.30;;;;;;;24.52;60.75;99394.11;434872;1256;139145;-65
2023/07/17 18:17:20;;;;;;;6.00;3.10;;;;;;;24.28;61.91;99387.98;434922;1254;139431;-61
2023/07/17 18:27:26;;;;;;;5.40;4.50;;;;;;;23.89;62.93;99392.83;434966;1254;139394;-62
2023/07/17 18:37:32;;;;;;;4.40;3.40;;;;;;;23.51;64.27;99401.27;435031;1256;139466;-62
2023/07/17 18:47:39;;;;;;;7.70;3.40;;;;;;;23.14;65.61;99399.95;435204;1256;139566;-64
2023/07/17 18:57:45;;;;;;;6.30;4.30;;;;;;;22.74;66.75;99396.85;435304;1254;140149;-62
2023/07/17 19:07:51;;;;;;;7.60;3.60;;;;;;;22.38;67.95;99395.86;435058;1253;143001;-64
2023/07/17 19:17:57;;;;;;;11.20;7.70;;;;;;;22.07;69.27;99398.55;435224;1253;138809;-66
2023/07/17 19:28:05;;;;;;;5.10;4.40;;;;;;;21.74;70.19;99384.79;434972;1256;139604;-67
2023/07/17 19:38:10;;;;;;;5.20;4.10;;;;;;;21.37;71.21;99384.43;435722;1256;200741;-72
2023/07/17 19:48:16;;;;;;;5.30;3.90;;;;;;;21.17;72.41;99392.75;435323;1253;139842;-67
2023/07/17 19:58:22;;;;;;;8.20;4.50;;;;;;;20.96;72.50;99385.35;435282;1254;140382;-67
2023/07/17 20:08:28;;;;;;;4.70;4.00;;;;;;;20.64;73.08;99393.52;435047;1253;140356;-64
2023/07/17 20:18:35;;;;;;;6.00;5.00;;;;;;;20.33;73.74;99399.65;435183;1254;140846;-66
2023/07/17 20:28:40;;;;;;;5.50;4.40;;;;;;;20.02;74.32;99405.77;435619;1254;139422;-69
2023/07/17 20:38:47;;;;;;;6.90;5.10;;;;;;;19.75;75.20;99411.55;435840;1253;139613;-71
2023/07/17 20:48:53;;;;;;;7.80;6.80;;;;;;;19.56;75.80;99402.92;435524;1254;139827;-62
2023/07/17 20:58:59;;;;;;;6.10;5.60;;;;;;;19.37;76.53;99416.39;435439;1256;139920;-63
2023/07/17 21:09:05;;;;;;;7.50;6.20;;;;;;;19.18;76.93;99419.23;435582;1256;140004;-64
2023/07/17 21:19:12;;;;;;;8.30;6.00;;;;;;;19.00;77.21;99432.55;435658;1254;140614;-63
2023/07/17 21:29:18;;;;;;;6.20;5.70;;;;;;;18.79;77.79;99427.91;436120;1253;139575;-63
2023/07/17 21:39:24;;;;;;;8.10;6.90;;;;;;;18.63;78.40;99420.33;435466;1254;141198;-64
2023/07/17 21:49:30;;;;;;;7.20;6.50;;;;;;;18.53;79.24;99423.55;436576;1253;139135;-63
2023/07/17 21:59:36;;;;;;;9.60;8.70;;;;;;;18.40;79.61;99421.84;435690;1256;140611;-63
2023/07/17 22:09:42;;;;;;;9.90;6.40;;;;;;;18.30;80.14;99415.89;435501;1253;140251;-63
2023/07/17 22:19:50;;;;;;;6.90;6.30;;;;;;;18.36;80.68;99417.98;435719;1253;139783;-66
2023/07/17 22:29:58;;;;;;;8.90;6.40;;;;;;;18.52;80.94;99427.06;435383;1253;139010;-66
2023/07/17 22:40:06;;;;;;;7.60;5.10;;;;;;;18.64;80.83;99434.04;435675;1253;139020;-66
2023/07/17 22:50:12;;;;;;;7.10;6.40;;;;;;;18.68;81.23;99425.67;446703;1256;140720;-66
2023/07/17 23:00:20;;;;;;;6.60;6.10;;;;;;;18.70;81.32;99420.65;435200;1256;141799;-66
2023/07/17 23:10:26;;;;;;;6.60;6.00;;;;;;;18.72;81.67;99400.98;436336;1256;139141;-67
2023/07/17 23:20:32;;;;;;;8.90;6.10;;;;;;;18.65;82.10;99408.02;435136;1254;139685;-66
2023/07/17 23:30:38;;;;;;;5.80;5.20;;;;;;;18.56;82.80;99415.33;435372;1254;140056;-66
2023/07/17 23:40:44;;;;;;;7.30;6.00;;;;;;;18.57;83.88;99428.50;435777;1254;142229;-66
2023/07/17 23:50:50;;;;;;;6.50;5.20;;;;;;;18.50;84.23;99419.95;436005;1254;140117;-67
